createdAt,value
2019-05-29T00:03:42.278Z,86.90
2019-05-29T00:08:46.626Z,87.10
2019-05-29T00:13:50.963Z,86.20
2019-05-29T00:18:58.261Z,86.80
2019-05-29T00:24:01.407Z,86.50
2019-05-29T00:29:05.757Z,86.00
2019-05-29T00:34:11.267Z,85.90
2019-05-29T00:39:16.826Z,85.60
2019-05-29T00:44:33.592Z,85.20
2019-05-29T00:49:27.563Z,85.00
2019-05-29T00:54:31.919Z,84.20
2019-05-29T00:59:36.317Z,83.90
2019-05-29T01:04:40.653Z,84.30
2019-05-29T01:09:44.977Z,84.80
2019-05-29T01:14:50.582Z,85.20
2019-05-29T01:19:55.656Z,85.90
2019-05-29T01:25:00.007Z,86.30
2019-05-29T01:30:07.856Z,86.70
2019-05-29T01:35:13.683Z,87.00
2019-05-29T01:40:23.173Z,87.80
2019-05-29T01:45:24.363Z,88.70
2019-05-29T01:50:28.706Z,89.60
2019-05-29T01:55:33.528Z,90.30
2019-05-29T02:00:38.693Z,90.70
2019-05-29T02:05:43.033Z,91.10
2019-05-29T02:10:48.443Z,91.30
2019-05-29T02:15:52.788Z,91.80
2019-05-29T02:20:57.154Z,92.10
2019-05-29T02:26:03.619Z,92.40
2019-05-29T02:31:07.976Z,92.50
2019-05-29T02:36:12.402Z,92.70
2019-05-29T02:41:18.915Z,92.80
2019-05-29T02:46:23.987Z,93.00
2019-05-29T02:51:37.827Z,93.30
2019-05-29T02:56:42.877Z,93.50
2019-05-29T03:01:47.302Z,93.60
2019-05-29T03:06:52.759Z,93.80
2019-05-29T03:12:00.065Z,93.90
2019-05-29T03:17:03.123Z,94.00
2019-05-29T03:22:07.546Z,94.10
2019-05-29T03:27:11.974Z,94.60
2019-05-29T03:32:17.178Z,94.30
2019-05-29T03:37:21.529Z,94.40
2019-05-29T03:42:26.455Z,94.40
2019-05-29T03:47:31.522Z,94.40
2019-05-29T03:52:38.636Z,94.50
2019-05-29T03:57:43.054Z,94.30
2019-05-29T04:02:47.402Z,94.30
2019-05-29T04:07:51.756Z,94.10
2019-05-29T04:12:56.715Z,94.10
2019-05-29T04:18:03.334Z,94.00
2019-05-29T04:23:08.310Z,94.10
2019-05-29T04:28:12.746Z,94.10
2019-05-29T04:33:17.146Z,94.00
2019-05-29T04:38:21.499Z,94.00
2019-05-29T04:43:25.905Z,93.90
2019-05-29T04:48:31.461Z,94.00
2019-05-29T04:53:39.734Z,93.60
2019-05-29T04:58:44.047Z,93.40
2019-05-29T05:03:48.409Z,93.00
2019-05-29T05:08:52.746Z,93.20
2019-05-29T05:13:57.114Z,93.40
2019-05-29T05:19:01.471Z,93.30
2019-05-29T05:24:05.871Z,92.80
2019-05-29T05:29:10.267Z,92.50
2019-05-29T05:34:17.563Z,92.00
2019-05-29T05:39:22.141Z,92.10
2019-05-29T05:44:26.905Z,92.20
2019-05-29T05:49:31.344Z,91.80
2019-05-29T05:54:35.667Z,91.20
2019-05-29T05:59:40.018Z,90.00
2019-05-29T06:04:44.459Z,86.20
2019-05-29T06:09:48.862Z,85.40
2019-05-29T06:14:53.193Z,84.20
2019-05-29T06:19:57.547Z,84.00
2019-05-29T06:25:03.435Z,83.20
2019-05-29T06:30:08.884Z,84.10
2019-05-29T06:35:13.709Z,84.80
2019-05-29T06:40:33.972Z,83.40
2019-05-29T06:45:39.857Z,81.90
2019-05-29T06:50:44.568Z,81.30
2019-05-29T06:55:54.279Z,77.40
2019-05-29T07:00:55.062Z,74.90
2019-05-29T07:05:59.450Z,75.30
2019-05-29T07:11:03.788Z,73.30
2019-05-29T07:16:08.134Z,72.50
2019-05-29T07:21:12.491Z,72.40
2019-05-29T07:26:17.391Z,74.50
2019-05-29T07:31:21.742Z,69.90
2019-05-29T07:36:26.237Z,65.90
2019-05-29T07:41:30.595Z,67.30
2019-05-29T07:46:34.955Z,68.00
2019-05-29T07:51:40.491Z,64.70
2019-05-29T07:56:49.322Z,64.50
2019-05-29T08:01:53.675Z,64.20
2019-05-29T08:06:58.041Z,64.70
2019-05-29T08:12:02.534Z,64.50
2019-05-29T08:17:08.616Z,62.60
2019-05-29T08:22:30.349Z,59.50
2019-05-29T08:27:24.071Z,59.20
2019-05-29T08:32:36.416Z,57.90
2019-05-29T08:37:40.852Z,57.50
2019-05-29T08:42:47.301Z,57.60
2019-05-29T08:48:04.586Z,56.90
2019-05-29T08:53:09.022Z,53.40
2019-05-29T08:58:13.359Z,54.40
2019-05-29T09:03:21.845Z,57.30
2019-05-29T09:08:28.890Z,55.00
2019-05-29T09:13:35.205Z,54.20
2019-05-29T09:18:40.296Z,53.20
2019-05-29T09:23:44.647Z,54.20
2019-05-29T09:28:49.095Z,53.80
2019-05-29T09:33:53.485Z,55.20
2019-05-29T09:38:57.880Z,54.20
2019-05-29T09:44:02.318Z,53.60
2019-05-29T09:49:06.784Z,51.40
2019-05-29T09:54:11.292Z,50.30
2019-05-29T09:59:15.719Z,51.10
2019-05-29T10:04:20.061Z,47.80
2019-05-29T10:09:24.852Z,49.10
2019-05-29T10:14:29.214Z,48.70
2019-05-29T10:19:33.614Z,47.30
2019-05-29T10:24:44.087Z,48.60
2019-05-29T10:29:51.700Z,49.20
2019-05-29T10:34:55.821Z,48.00
2019-05-29T10:40:00.247Z,45.40
2019-05-29T10:45:09.383Z,46.80
2019-05-29T10:50:15.871Z,45.90
2019-05-29T10:55:23.391Z,45.00
2019-05-29T11:00:27.727Z,44.00
2019-05-29T11:05:32.804Z,42.90
2019-05-29T11:10:37.819Z,43.80
2019-05-29T11:15:42.186Z,46.60
2019-05-29T11:20:49.331Z,43.80
2019-05-29T11:25:54.446Z,44.90
2019-05-29T11:31:05.226Z,44.60
2019-05-29T11:36:10.738Z,42.80
2019-05-29T11:41:25.663Z,43.00
2019-05-29T11:46:18.335Z,41.60
2019-05-29T11:51:23.874Z,41.80
2019-05-29T11:56:28.539Z,42.60
2019-05-29T12:01:48.966Z,43.30
2019-05-29T12:06:40.917Z,42.00
2019-05-29T12:11:45.325Z,41.70
2019-05-29T12:16:49.740Z,42.10
2019-05-29T12:21:54.466Z,40.40
2019-05-29T12:26:58.940Z,40.80
2019-05-29T12:32:08.242Z,41.30
2019-05-29T12:37:09.585Z,40.90
2019-05-29T12:42:14.064Z,37.50
2019-05-29T12:47:18.435Z,34.40
2019-05-29T12:52:22.768Z,33.00
2019-05-29T12:57:27.147Z,34.00
2019-05-29T13:02:31.523Z,35.70
2019-05-29T13:07:35.940Z,33.10
2019-05-29T13:12:40.352Z,32.00
2019-05-29T13:17:44.811Z,29.90
2019-05-29T13:22:50.139Z,29.40
2019-05-29T13:27:57.333Z,28.20
2019-05-29T13:33:03.607Z,28.80
2019-05-29T13:38:07.370Z,27.50
2019-05-29T13:43:15.570Z,26.00
2019-05-29T13:48:18.095Z,24.30
2019-05-29T13:53:22.533Z,23.90
2019-05-29T13:58:27.066Z,24.50
2019-05-29T14:08:35.425Z,20.90
2019-05-29T14:13:39.841Z,21.60
2019-05-29T14:18:44.309Z,21.30
2019-05-29T14:23:48.719Z,19.40
2019-05-29T14:28:53.088Z,18.50
2019-05-29T14:34:00.923Z,17.70
2019-05-29T14:39:07.727Z,14.10
2019-05-29T14:44:12.163Z,17.70
2019-05-29T14:49:16.675Z,20.70
2019-05-29T14:54:21.229Z,25.90
2019-05-29T14:59:25.567Z,27.40
2019-05-29T15:04:29.898Z,22.90
2019-05-29T15:09:34.261Z,24.50
2019-05-29T15:14:38.625Z,26.60
2019-05-29T15:19:43.082Z,24.10
2019-05-29T15:25:01.362Z,21.70
2019-05-29T15:29:53.605Z,18.40
2019-05-29T15:34:59.584Z,19.90
2019-05-29T15:40:06.965Z,25.70
2019-05-29T15:45:14.034Z,28.40
2019-05-29T15:50:19.371Z,29.90
2019-05-29T15:55:33.258Z,29.20
2019-05-29T16:00:30.840Z,29.40
2019-05-29T16:05:35.175Z,29.90
2019-05-29T16:10:43.884Z,29.80
2019-05-29T16:15:48.218Z,30.70
2019-05-29T16:20:52.562Z,32.30
2019-05-29T16:25:56.948Z,32.50
2019-05-29T16:31:01.314Z,32.20
2019-05-29T16:36:05.647Z,31.80
2019-05-29T16:41:09.988Z,32.30
2019-05-29T16:46:18.460Z,33.10
2019-05-29T16:51:20.920Z,33.10
2019-05-29T16:56:25.551Z,33.50
2019-05-29T17:01:30.072Z,32.90
2019-05-29T17:06:34.619Z,33.30
2019-05-29T17:11:38.963Z,33.30
2019-05-29T17:16:43.317Z,32.90
2019-05-29T17:21:48.097Z,33.60
2019-05-29T17:26:53.674Z,33.50
2019-05-29T17:31:58.011Z,34.00
2019-05-29T17:37:02.372Z,35.40
2019-05-29T17:42:06.708Z,35.50
2019-05-29T17:47:11.071Z,35.20
2019-05-29T17:52:17.764Z,35.70
2019-05-29T17:57:22.179Z,35.30
2019-05-29T18:02:27.621Z,35.40
2019-05-29T18:07:32.230Z,35.60
2019-05-29T18:12:38.068Z,36.00
2019-05-29T18:17:44.343Z,36.50
2019-05-29T18:22:49.234Z,36.90
2019-05-29T18:27:53.846Z,36.40
2019-05-29T18:32:58.231Z,36.90
2019-05-29T18:38:02.608Z,36.80
2019-05-29T18:43:07.374Z,37.50
2019-05-29T18:48:11.901Z,37.90
2019-05-29T18:53:16.304Z,38.20
2019-05-29T18:58:22.205Z,39.10
2019-05-29T19:03:29.613Z,40.00
2019-05-29T19:08:35.687Z,40.00
2019-05-29T19:13:42.210Z,40.40
2019-05-29T19:18:46.599Z,41.00
2019-05-29T19:23:50.974Z,42.00
2019-05-29T19:28:55.431Z,43.00
2019-05-29T19:33:59.827Z,43.60
2019-05-29T19:39:07.122Z,44.40
2019-05-29T19:44:11.602Z,45.30
2019-05-29T19:49:16.165Z,45.90
2019-05-29T19:54:21.804Z,46.10
2019-05-29T19:59:27.994Z,46.50
2019-05-29T20:04:34.715Z,47.90
2019-05-29T20:09:40.109Z,48.60
2019-05-29T20:14:44.509Z,49.80
2019-05-29T20:19:48.884Z,50.80
2019-05-29T20:24:54.836Z,51.20
2019-05-29T20:29:59.185Z,52.20
2019-05-29T20:35:04.758Z,52.90
2019-05-29T20:40:10.215Z,53.50
2019-05-29T20:45:15.605Z,54.30
2019-05-29T20:50:20.062Z,55.00
2019-05-29T20:55:24.422Z,56.10
2019-05-29T21:00:28.828Z,58.30
2019-05-29T21:05:34.632Z,59.30
2019-05-29T21:10:40.226Z,60.20
2019-05-29T21:15:45.655Z,62.00
2019-05-29T21:20:50.080Z,63.10
2019-05-29T21:25:54.412Z,65.80
2019-05-29T21:30:58.770Z,67.30
2019-05-29T21:36:04.415Z,68.90
2019-05-29T21:41:08.771Z,69.90
2019-05-29T21:46:13.140Z,70.90
2019-05-29T21:51:18.460Z,71.60
2019-05-29T21:56:24.068Z,72.20
2019-05-29T22:01:28.931Z,73.20
2019-05-29T22:06:33.287Z,72.50
2019-05-29T22:11:37.688Z,73.00
2019-05-29T22:16:43.131Z,72.00
2019-05-29T22:21:47.646Z,73.20
2019-05-29T22:26:53.131Z,69.90
2019-05-29T22:31:57.737Z,69.30
2019-05-29T22:37:02.085Z,69.70
2019-05-29T22:42:07.684Z,70.90
2019-05-29T22:47:12.056Z,72.40
2019-05-29T22:52:18.729Z,74.50
2019-05-29T22:57:23.065Z,76.10
2019-05-29T23:02:27.562Z,77.50
2019-05-29T23:07:32.118Z,79.00
2019-05-29T23:12:36.493Z,80.20
2019-05-29T23:17:40.899Z,82.30
2019-05-29T23:22:46.330Z,83.30
2019-05-29T23:27:52.768Z,84.00
2019-05-29T23:32:58.989Z,84.90
2019-05-29T23:38:03.591Z,85.90
2019-05-29T23:43:09.103Z,86.80
2019-05-29T23:48:13.439Z,86.90
2019-05-29T23:53:17.850Z,87.60
2019-05-29T23:58:23.411Z,88.00
